Willis, MI

8:58 AM EST on March 04, 2015 (GMT -0500)
Ypsilanti Township | Change Station
CLOSE
Current Station
Personal Weather Station
Location: Ypsilanti, MI
Elevation: 741 ft
Nearby Weather Stations

Elev 741 ft 42.21 °N, 83.61 °W | Updated 5 minutes ago

Overcast
Overcast
29.6 °F
Feels Like 30 °F
N
1.1
Wind Variable Wind from West

Today
High -- | Low -- °F
--% Chance of Precip.
Yesterday
High -- | Low -- °F
Precip. -- in
7:04 AM 6:27 PM
Waxing Gibbous, 99% visible
Pressure 29.92 in
Visibility 7.0 miles
Clouds Overcast 3000 ft
Windchill 30 °F
Dew Point 23 °F
Humidity 76%
Rainfall 0.00 in
Snow Depth Not available.
UV 0 out of 12
Pollen .40 out of 12
Air Quality Not available.
Flu Activity Not available.
SPECI KYIP 041313Z 30004KT 7SM OVC030 01/M05 A2992 RMK AO2 T00061050

More Conditions Fewer Conditions

Pressure 29.92 in
Visibility 7.0 miles
Clouds Overcast 3000 ft
Windchill 30 °F
Dew Point 23 °F
Humidity 76%
Rainfall 0.00 in
Snow Depth Not available.
UV 0 out of 12
Pollen .40 out of 12
Air Quality Not available.
Flu Activity Not available.
SPECI KYIP 041313Z 30004KT 7SM OVC030 01/M05 A2992 RMK AO2 T00061050

More Conditions Fewer Conditions

10-Day Weather Forecast

Almanac

Astronomy

Mar. 04, 2015 Rise Set
Actual Time
Civil Twilight
Nautical Twilight
Astronomical Twilight
Moon
Length of Visible Light
Length of Day
Tomorrow will be .
, % of the Moon is Illuminated

Today's Extremes

State Highs State Lows

Community

WunderPhotos

Upload Photos

1,802,453 photos uploaded!

WunderBlogs® & News

Nearby

Air Quality

  Air Quality AQ Index Pollutant
Not available.

Snow Depth

Station Depth Elevation

Earthquake Activity

City Distance Mag. Time & Date
Minimum magnitude displayed is 2.5.

Coastal Water Temperatures

Place Temperature

Nearby Weather Stations